createdAt,value
2023-01-10T00:01:18.853Z,4.97
2023-01-10T00:03:52.371Z,4.33
2023-01-10T00:06:25.973Z,4.83
2023-01-10T00:08:59.965Z,5.00
2023-01-10T00:11:50.713Z,4.87
2023-01-10T00:14:29.963Z,4.50
2023-01-10T00:17:04.160Z,4.77
2023-01-10T00:19:37.596Z,4.13
2023-01-10T00:22:23.077Z,5.00
2023-01-10T00:24:56.870Z,4.80
2023-01-10T00:27:30.767Z,5.00
2023-01-10T00:30:14.408Z,4.47
2023-01-10T00:32:47.713Z,4.10
2023-01-10T00:35:21.221Z,4.67
2023-01-10T00:38:00.576Z,5.27
2023-01-10T00:40:35.086Z,4.20
2023-01-10T00:43:23.962Z,4.37
2023-01-10T00:45:59.243Z,4.30
2023-01-10T00:48:33.062Z,4.20
2023-01-10T00:51:07.544Z,4.50
2023-01-10T00:53:40.878Z,4.50
2023-01-10T00:56:14.471Z,4.30
2023-01-10T00:58:48.034Z,4.07
2023-01-10T01:01:23.661Z,3.57
2023-01-10T01:03:59.729Z,3.43
2023-01-10T01:06:33.256Z,3.40
2023-01-10T01:09:07.093Z,4.23
2023-01-10T01:11:40.935Z,3.67
2023-01-10T01:14:14.781Z,3.40
2023-01-10T01:16:50.163Z,3.67
2023-01-10T01:19:23.637Z,3.60
2023-01-10T01:21:57.495Z,3.03
2023-01-10T01:24:31.699Z,3.30
2023-01-10T01:27:05.724Z,3.10
2023-01-10T01:29:43.432Z,3.40
2023-01-10T01:32:19.084Z,3.47
2023-01-10T01:34:52.993Z,3.13
2023-01-10T01:37:26.456Z,3.70
2023-01-10T01:39:59.923Z,3.23
2023-01-10T01:42:36.896Z,3.07
2023-01-10T01:45:40.173Z,4.07
2023-01-10T01:48:37.458Z,3.03
2023-01-10T01:51:17.599Z,3.07
2023-01-10T01:53:58.200Z,2.90
2023-01-10T01:56:39.112Z,2.97
2023-01-10T01:59:19.499Z,3.13
2023-01-10T02:01:58.915Z,2.80
2023-01-10T02:04:42.514Z,2.67
2023-01-10T02:07:17.175Z,3.33
2023-01-10T02:09:57.202Z,2.63
2023-01-10T02:12:34.592Z,2.83
2023-01-10T02:15:09.912Z,3.27
2023-01-10T02:17:44.224Z,2.63
2023-01-10T02:20:22.539Z,2.87
2023-01-10T02:23:28.089Z,2.47
2023-01-10T02:26:38.963Z,2.77
2023-01-10T02:30:14.918Z,2.83
2023-01-10T02:33:05.404Z,2.77
2023-01-10T02:36:08.689Z,2.60
2023-01-10T02:38:59.622Z,2.17
2023-01-10T02:41:43.495Z,2.50
2023-01-10T02:44:23.895Z,2.37
2023-01-10T02:46:58.613Z,2.67
2023-01-10T02:49:44.357Z,2.73
2023-01-10T02:52:23.986Z,2.83
2023-01-10T02:55:04.101Z,2.23
2023-01-10T02:57:53.197Z,2.23
2023-01-10T03:00:47.145Z,2.33
2023-01-10T03:03:35.232Z,2.30
2023-01-10T03:06:29.187Z,2.10
2023-01-10T03:09:13.839Z,2.30
2023-01-10T03:11:51.547Z,2.03
2023-01-10T03:14:29.562Z,2.50
2023-01-10T03:17:09.834Z,2.40
2023-01-10T03:19:51.160Z,2.00
2023-01-10T03:22:28.092Z,2.00
2023-01-10T03:25:07.411Z,1.90
2023-01-10T03:27:50.540Z,2.00
2023-01-10T03:30:34.698Z,2.47
2023-01-10T03:33:08.971Z,2.10
2023-01-10T03:35:58.885Z,2.30
2023-01-10T03:38:45.341Z,2.07
2023-01-10T03:41:35.176Z,2.57
2023-01-10T03:44:37.001Z,2.20
2023-01-10T03:47:15.872Z,2.47
2023-01-10T03:49:56.665Z,2.50
2023-01-10T03:52:31.479Z,2.10
2023-01-10T03:55:11.515Z,2.57
2023-01-10T03:57:46.265Z,2.40
2023-01-10T04:00:21.907Z,2.70
2023-01-10T04:02:55.722Z,2.87
2023-01-10T04:05:29.499Z,2.67
2023-01-10T04:08:03.439Z,2.73
2023-01-10T04:10:38.583Z,2.50
2023-01-10T04:13:12.438Z,2.60
2023-01-10T04:15:46.117Z,2.43
2023-01-10T04:18:19.772Z,2.20
2023-01-10T04:20:53.344Z,2.10
2023-01-10T04:23:26.752Z,2.53
2023-01-10T04:26:01.742Z,2.67
2023-01-10T04:28:35.214Z,2.40
2023-01-10T04:31:08.885Z,2.23
2023-01-10T04:33:42.729Z,2.40
2023-01-10T04:36:16.233Z,2.40
2023-01-10T04:38:49.788Z,2.20
2023-01-10T04:41:24.755Z,2.20
2023-01-10T04:43:58.726Z,2.60
2023-01-10T04:46:32.803Z,2.57
2023-01-10T04:49:06.349Z,2.23
2023-01-10T04:51:40.273Z,2.40
2023-01-10T04:54:13.734Z,2.30
2023-01-10T04:56:48.850Z,2.33
2023-01-10T04:59:22.647Z,2.33
2023-01-10T05:01:58.570Z,2.47
2023-01-10T05:04:32.526Z,2.37
2023-01-10T05:07:05.846Z,2.27
2023-01-10T05:09:39.314Z,2.47
2023-01-10T05:12:14.146Z,2.43
2023-01-10T05:14:47.703Z,2.50
2023-01-10T05:17:21.230Z,2.00
2023-01-10T05:19:54.792Z,2.57
2023-01-10T05:22:28.542Z,2.30
2023-01-10T05:25:02.413Z,2.30
2023-01-10T05:27:37.711Z,2.43
2023-01-10T05:30:14.259Z,2.00
2023-01-10T05:32:48.409Z,2.80
2023-01-10T05:35:22.252Z,2.57
2023-01-10T05:37:55.777Z,2.77
2023-01-10T05:40:29.478Z,2.80
2023-01-10T05:43:04.608Z,2.70
2023-01-10T05:45:38.097Z,2.80
2023-01-10T05:48:11.888Z,2.97
2023-01-10T05:50:45.968Z,2.70
2023-01-10T05:53:20.103Z,2.47
2023-01-10T05:55:58.824Z,2.70
2023-01-10T05:58:33.799Z,2.97
2023-01-10T06:01:07.255Z,2.47
2023-01-10T06:03:41.008Z,2.73
2023-01-10T06:06:14.856Z,2.73
2023-01-10T06:08:48.583Z,2.97
2023-01-10T06:11:22.033Z,2.83
2023-01-10T06:13:57.689Z,2.57
2023-01-10T06:16:31.524Z,2.73
2023-01-10T06:19:05.234Z,2.87
2023-01-10T06:21:38.642Z,2.80
2023-01-10T06:24:13.383Z,2.70
2023-01-10T06:26:46.984Z,2.70
2023-01-10T06:29:22.346Z,3.30
2023-01-10T06:31:56.299Z,2.77
2023-01-10T06:34:30.158Z,2.80
2023-01-10T06:37:03.781Z,2.90
2023-01-10T06:39:37.720Z,2.90
2023-01-10T06:42:11.513Z,3.67
2023-01-10T06:44:57.418Z,2.90
2023-01-10T06:47:31.217Z,2.80
2023-01-10T06:50:07.096Z,2.80
2023-01-10T06:52:40.683Z,3.43
2023-01-10T06:55:14.622Z,3.00
2023-01-10T06:57:48.368Z,2.50
2023-01-10T07:00:25.305Z,2.83
2023-01-10T07:03:01.494Z,4.03
2023-01-10T07:05:36.034Z,3.10
2023-01-10T07:08:09.999Z,3.03
2023-01-10T07:10:45.074Z,2.70
2023-01-10T07:13:18.800Z,3.03
2023-01-10T07:15:53.885Z,3.53
2023-01-10T07:18:27.704Z,2.80
2023-01-10T07:21:01.655Z,3.33
2023-01-10T07:23:35.597Z,3.30
2023-01-10T07:26:17.556Z,4.33
2023-01-10T07:28:52.771Z,3.73
2023-01-10T07:31:28.149Z,3.67
2023-01-10T07:34:01.941Z,3.80
2023-01-10T07:36:39.364Z,2.87
2023-01-10T07:39:13.307Z,3.07
2023-01-10T07:41:49.871Z,3.87
2023-01-10T07:44:24.425Z,3.43
2023-01-10T07:46:59.558Z,3.47
2023-01-10T07:49:32.964Z,3.50
2023-01-10T07:52:09.338Z,3.40
2023-01-10T07:54:43.050Z,3.37
2023-01-10T07:57:16.884Z,3.43
2023-01-10T07:59:50.405Z,3.63
2023-01-10T08:02:25.369Z,3.43
2023-01-10T08:04:59.253Z,3.83
2023-01-10T08:07:33.682Z,3.87
2023-01-10T08:10:09.115Z,3.97
2023-01-10T08:12:42.875Z,3.73
2023-01-10T08:15:16.251Z,3.13
2023-01-10T08:17:51.479Z,3.47
2023-01-10T08:20:25.350Z,4.10
2023-01-10T08:22:59.647Z,3.33
2023-01-10T08:25:33.473Z,3.40
2023-01-10T08:28:07.091Z,3.70
2023-01-10T08:30:41.606Z,3.67
2023-01-10T08:33:16.956Z,4.47
2023-01-10T08:35:51.033Z,3.57
2023-01-10T08:38:24.734Z,3.47
2023-01-10T08:40:59.189Z,3.70
2023-01-10T08:43:33.542Z,3.90
2023-01-10T08:46:07.674Z,3.10
2023-01-10T08:48:44.415Z,3.83
2023-01-10T08:51:18.102Z,3.67
2023-01-10T08:53:52.170Z,3.90
2023-01-10T08:56:25.822Z,3.57
2023-01-10T08:59:00.786Z,3.50
2023-01-10T09:01:34.675Z,3.47
2023-01-10T09:04:09.858Z,3.43
2023-01-10T09:06:43.751Z,4.03
2023-01-10T09:09:17.485Z,3.67
2023-01-10T09:11:51.319Z,3.83
2023-01-10T09:14:25.018Z,3.47
2023-01-10T09:16:58.886Z,3.10
2023-01-10T09:19:34.962Z,3.97
2023-01-10T09:22:08.908Z,4.00
2023-01-10T09:24:44.059Z,3.50
2023-01-10T09:27:17.927Z,3.30
2023-01-10T09:29:51.645Z,3.00
2023-01-10T09:32:25.615Z,3.13
2023-01-10T09:35:00.515Z,3.33
2023-01-10T09:37:34.619Z,3.90
2023-01-10T09:40:11.176Z,3.57
2023-01-10T09:43:02.624Z,3.60
2023-01-10T09:45:52.184Z,3.23
2023-01-10T09:48:38.660Z,3.90
2023-01-10T09:51:34.248Z,3.57
2023-01-10T09:54:16.194Z,2.90
2023-01-10T09:56:51.639Z,3.57
2023-01-10T09:59:31.463Z,3.57
2023-01-10T10:02:25.052Z,4.00
2023-01-10T10:05:13.959Z,3.60
2023-01-10T10:07:57.059Z,3.30
2023-01-10T10:10:41.470Z,3.70
2023-01-10T10:13:27.991Z,3.73
2023-01-10T10:16:16.061Z,3.90
2023-01-10T10:19:06.259Z,3.47
2023-01-10T10:21:53.679Z,3.67
2023-01-10T10:24:57.964Z,3.83
2023-01-10T10:27:41.353Z,3.77
2023-01-10T10:30:32.913Z,3.27
2023-01-10T10:33:29.114Z,3.77
2023-01-10T10:36:10.841Z,3.43
2023-01-10T10:38:49.024Z,3.33
2023-01-10T10:41:36.019Z,3.23
2023-01-10T10:44:32.790Z,3.60
2023-01-10T10:47:17.118Z,2.90
2023-01-10T10:49:59.724Z,2.90
2023-01-10T10:52:38.080Z,3.53
2023-01-10T10:55:17.082Z,3.53
2023-01-10T10:57:59.926Z,3.60
2023-01-10T11:00:35.632Z,2.60
2023-01-10T11:03:28.634Z,4.00
2023-01-10T11:06:03.115Z,3.53
2023-01-10T11:08:42.113Z,3.10
2023-01-10T11:11:25.393Z,2.97
2023-01-10T11:14:03.922Z,4.00
2023-01-10T11:16:40.314Z,3.43
2023-01-10T11:19:22.773Z,3.70
2023-01-10T11:22:01.930Z,3.20
2023-01-10T11:24:40.967Z,3.60
2023-01-10T11:27:20.682Z,3.10
2023-01-10T11:30:00.859Z,3.87
2023-01-10T11:32:40.515Z,4.33
2023-01-10T11:35:24.340Z,3.70
2023-01-10T11:38:04.773Z,3.13
2023-01-10T11:40:39.683Z,2.93
2023-01-10T11:43:34.517Z,3.07
2023-01-10T11:46:20.607Z,3.33
2023-01-10T11:49:06.672Z,3.40
2023-01-10T11:51:48.693Z,3.40
2023-01-10T11:54:25.938Z,3.00
2023-01-10T11:57:05.336Z,3.17
2023-01-10T11:59:39.491Z,3.20
2023-01-10T12:02:26.842Z,2.80
2023-01-10T12:05:06.053Z,2.80
2023-01-10T12:08:00.230Z,3.37
2023-01-10T12:10:36.154Z,3.03
2023-01-10T12:13:18.027Z,3.47
2023-01-10T12:15:52.882Z,2.77
2023-01-10T12:18:27.531Z,3.30
2023-01-10T12:21:01.785Z,3.30
2023-01-10T12:23:41.436Z,2.73
2023-01-10T12:26:15.580Z,3.10
2023-01-10T12:28:58.719Z,3.30
2023-01-10T12:31:35.747Z,3.93
2023-01-10T12:34:21.537Z,3.17
2023-01-10T12:37:07.236Z,3.00
2023-01-10T12:39:46.348Z,3.20
2023-01-10T12:43:03.376Z,3.37
2023-01-10T12:45:48.443Z,2.73
2023-01-10T12:48:36.466Z,2.70
2023-01-10T12:51:20.776Z,2.70
2023-01-10T12:54:01.868Z,2.60
2023-01-10T12:56:36.951Z,2.73
2023-01-10T12:59:36.347Z,2.87
2023-01-10T13:02:25.812Z,2.80
2023-01-10T13:05:05.633Z,3.17
2023-01-10T13:07:41.662Z,3.20
2023-01-10T13:10:22.061Z,2.97
2023-01-10T13:13:10.949Z,2.93
2023-01-10T13:15:54.892Z,2.40
2023-01-10T13:18:34.872Z,3.07
2023-01-10T13:21:13.959Z,2.83
2023-01-10T13:23:53.085Z,2.53
2023-01-10T13:26:27.155Z,3.00
2023-01-10T13:29:04.060Z,2.67
2023-01-10T13:31:38.039Z,2.13
2023-01-10T13:34:17.660Z,2.30
2023-01-10T13:36:58.165Z,2.30
2023-01-10T13:39:37.861Z,2.90
2023-01-10T13:42:45.162Z,2.83
2023-01-10T13:45:28.352Z,2.77
2023-01-10T13:48:26.214Z,2.10
2023-01-10T13:51:15.971Z,2.57
2023-01-10T13:54:01.386Z,2.47
2023-01-10T13:56:40.885Z,2.53
2023-01-10T13:59:54.779Z,2.30
2023-01-10T14:02:32.146Z,2.27
2023-01-10T14:05:17.972Z,2.50
2023-01-10T14:07:55.325Z,2.23
2023-01-10T14:10:32.788Z,2.87
2023-01-10T14:13:20.687Z,2.10
2023-01-10T14:15:54.696Z,2.60
2023-01-10T14:18:35.838Z,2.77
2023-01-10T14:21:21.020Z,2.47
2023-01-10T14:23:57.963Z,2.30
2023-01-10T14:26:36.966Z,2.17
2023-01-10T14:29:19.339Z,2.70
2023-01-10T14:31:55.595Z,2.60
2023-01-10T14:34:32.459Z,2.30
2023-01-10T14:37:17.278Z,2.23
2023-01-10T14:39:55.999Z,2.27
2023-01-10T14:42:31.085Z,2.10
2023-01-10T14:45:21.520Z,2.73
2023-01-10T14:47:55.605Z,1.93
2023-01-10T14:50:32.778Z,2.47
2023-01-10T14:53:07.574Z,2.20
2023-01-10T14:55:44.541Z,2.57
2023-01-10T14:58:20.050Z,2.60
2023-01-10T15:00:57.406Z,2.13
2023-01-10T15:03:31.423Z,2.10
2023-01-10T15:06:05.300Z,2.30
2023-01-10T15:08:39.123Z,2.23
2023-01-10T15:11:15.988Z,2.20
2023-01-10T15:13:55.322Z,2.50
2023-01-10T15:16:31.695Z,2.10
2023-01-10T15:19:06.176Z,2.23
2023-01-10T15:21:45.201Z,2.77
2023-01-10T15:24:33.029Z,2.43
2023-01-10T15:27:14.400Z,2.10
2023-01-10T15:29:47.991Z,2.47
2023-01-10T15:32:29.896Z,2.03
2023-01-10T15:35:04.617Z,2.27
2023-01-10T15:37:45.410Z,3.00
2023-01-10T15:40:27.077Z,4.00
2023-01-10T15:43:25.718Z,2.40
2023-01-10T15:46:01.735Z,2.27
2023-01-10T15:48:41.128Z,2.13
2023-01-10T15:51:17.267Z,2.87
2023-01-10T15:54:03.413Z,2.30
2023-01-10T15:56:42.143Z,2.90
2023-01-10T15:59:27.673Z,2.27
2023-01-10T16:02:17.499Z,1.90
2023-01-10T16:04:56.746Z,2.37
2023-01-10T16:07:35.203Z,2.47
2023-01-10T16:10:20.552Z,2.43
2023-01-10T16:13:14.019Z,2.20
2023-01-10T16:15:47.498Z,2.87
2023-01-10T16:18:21.079Z,2.27
2023-01-10T16:21:00.784Z,2.87
2023-01-10T16:23:37.690Z,2.07
2023-01-10T16:26:11.742Z,2.73
2023-01-10T16:28:45.647Z,2.57
2023-01-10T16:31:19.263Z,2.13
2023-01-10T16:33:53.220Z,2.80
2023-01-10T16:36:28.236Z,2.87
2023-01-10T16:39:13.566Z,2.40
2023-01-10T16:42:06.392Z,2.43
2023-01-10T16:44:41.625Z,2.30
2023-01-10T16:47:15.405Z,2.30
2023-01-10T16:49:49.148Z,2.90
2023-01-10T16:52:24.148Z,2.47
2023-01-10T16:54:57.692Z,2.13
2023-01-10T16:57:31.467Z,2.47
2023-01-10T17:00:06.882Z,2.87
2023-01-10T17:02:41.333Z,2.40
2023-01-10T17:05:16.647Z,1.87
2023-01-10T17:07:52.275Z,2.50
2023-01-10T17:10:26.027Z,2.90
2023-01-10T17:13:00.344Z,2.90
2023-01-10T17:15:34.977Z,2.50
2023-01-10T17:18:08.748Z,2.80
2023-01-10T17:20:42.271Z,2.23
2023-01-10T17:23:17.577Z,2.10
2023-01-10T17:25:51.592Z,2.50
2023-01-10T17:28:25.118Z,2.20
2023-01-10T17:30:59.076Z,2.47
2023-01-10T17:33:34.164Z,2.30
2023-01-10T17:36:09.275Z,1.87
2023-01-10T17:38:44.392Z,1.90
2023-01-10T17:41:18.052Z,1.93
2023-01-10T17:43:51.680Z,1.73
2023-01-10T17:46:25.273Z,1.73
2023-01-10T17:48:58.816Z,2.03
2023-01-10T17:51:32.583Z,2.33
2023-01-10T17:54:08.189Z,2.37
2023-01-10T17:56:41.992Z,2.17
2023-01-10T17:59:15.849Z,2.20
2023-01-10T18:01:49.772Z,2.20
2023-01-10T18:04:23.874Z,2.00
2023-01-10T18:06:57.873Z,1.53
2023-01-10T18:09:33.241Z,2.30
2023-01-10T18:12:08.223Z,1.80
2023-01-10T18:14:41.851Z,2.00
2023-01-10T18:17:17.413Z,2.10
2023-01-10T18:19:51.415Z,1.53
2023-01-10T18:22:48.154Z,1.87
2023-01-10T18:25:24.519Z,1.40
2023-01-10T18:28:00.463Z,1.60
2023-01-10T18:30:34.354Z,1.70
2023-01-10T18:33:08.205Z,1.50
2023-01-10T18:35:42.229Z,1.97
2023-01-10T18:38:16.257Z,2.07
2023-01-10T18:40:53.495Z,1.60
2023-01-10T18:43:27.364Z,1.40
2023-01-10T18:46:03.935Z,1.57
2023-01-10T18:48:37.923Z,1.50
2023-01-10T18:51:14.956Z,1.40
2023-01-10T18:53:48.986Z,1.50
2023-01-10T18:56:23.837Z,1.27
2023-01-10T18:58:59.171Z,1.47
2023-01-10T19:01:34.688Z,1.57
2023-01-10T19:04:08.640Z,1.43
2023-01-10T19:06:44.725Z,1.40
2023-01-10T19:09:19.737Z,1.17
2023-01-10T19:11:54.945Z,1.60
2023-01-10T19:14:28.607Z,1.10
2023-01-10T19:17:02.065Z,1.10
2023-01-10T19:19:36.025Z,1.37
2023-01-10T19:22:09.835Z,1.03
2023-01-10T19:24:43.656Z,1.00
2023-01-10T19:27:19.516Z,1.30
2023-01-10T19:29:53.215Z,1.40
2023-01-10T19:32:27.905Z,1.23
2023-01-10T19:35:01.586Z,1.17
2023-01-10T19:37:35.662Z,1.20
2023-01-10T19:40:12.625Z,1.03
2023-01-10T19:42:47.661Z,1.20
2023-01-10T19:45:21.511Z,1.40
2023-01-10T19:47:55.484Z,1.40
2023-01-10T19:50:29.455Z,1.50
2023-01-10T19:53:03.078Z,1.10
2023-01-10T19:55:37.275Z,1.30
2023-01-10T19:58:13.188Z,1.17
2023-01-10T20:00:46.647Z,1.30
2023-01-10T20:03:20.458Z,1.20
2023-01-10T20:05:53.848Z,1.37
2023-01-10T20:08:27.254Z,1.27
2023-01-10T20:11:06.002Z,1.40
2023-01-10T20:13:45.028Z,1.10
2023-01-10T20:16:21.084Z,1.17
2023-01-10T20:18:54.717Z,1.73
2023-01-10T20:21:28.467Z,1.00
2023-01-10T20:24:02.455Z,1.13
2023-01-10T20:26:36.119Z,1.10
2023-01-10T20:29:12.499Z,1.17
2023-01-10T20:31:48.106Z,1.30
2023-01-10T20:34:23.199Z,1.30
2023-01-10T20:36:56.862Z,1.33
2023-01-10T20:39:30.903Z,1.13
2023-01-10T20:42:04.726Z,1.00
2023-01-10T20:44:40.253Z,1.10
2023-01-10T20:47:14.174Z,1.10
2023-01-10T20:49:48.291Z,1.37
2023-01-10T20:52:21.842Z,1.20
2023-01-10T20:54:55.734Z,1.20
2023-01-10T20:57:29.118Z,1.13
2023-01-10T21:00:04.266Z,1.17
2023-01-10T21:02:37.970Z,0.87
2023-01-10T21:05:11.709Z,0.90
2023-01-10T21:07:45.329Z,1.07
2023-01-10T21:10:19.837Z,1.07
2023-01-10T21:12:53.661Z,0.97
2023-01-10T21:15:29.089Z,0.80
2023-01-10T21:18:02.844Z,0.80
2023-01-10T21:20:36.651Z,0.93
2023-01-10T21:23:11.359Z,0.90
2023-01-10T21:25:46.004Z,1.00
2023-01-10T21:28:20.842Z,0.70
2023-01-10T21:30:56.031Z,0.83
2023-01-10T21:33:29.463Z,1.03
2023-01-10T21:36:03.269Z,0.80
2023-01-10T21:38:37.909Z,0.90
2023-01-10T21:41:15.447Z,0.70
2023-01-10T21:43:49.308Z,1.17
2023-01-10T21:46:24.316Z,0.70
2023-01-10T21:48:58.758Z,1.00
2023-01-10T21:51:32.470Z,0.83
2023-01-10T21:54:06.298Z,0.93
2023-01-10T21:56:39.769Z,0.70
2023-01-10T21:59:13.555Z,0.90
2023-01-10T22:01:49.818Z,1.07
2023-01-10T22:04:24.452Z,0.80
2023-01-10T22:06:58.697Z,0.80
2023-01-10T22:09:32.228Z,0.90
2023-01-10T22:12:06.460Z,0.90
2023-01-10T22:14:40.440Z,0.70
2023-01-10T22:17:16.558Z,0.97
2023-01-10T22:19:50.580Z,0.70
2023-01-10T22:22:24.297Z,0.90
2023-01-10T22:24:57.886Z,0.60
2023-01-10T22:27:31.969Z,0.60
2023-01-10T22:30:07.361Z,0.70
2023-01-10T22:32:42.492Z,0.73
2023-01-10T22:35:17.144Z,0.60
2023-01-10T22:37:50.947Z,0.70
2023-01-10T22:40:25.210Z,0.67
2023-01-10T22:42:58.982Z,0.70
2023-01-10T22:45:33.426Z,0.70
2023-01-10T22:48:08.964Z,0.60
2023-01-10T22:50:50.143Z,0.60
2023-01-10T22:53:23.669Z,0.63
2023-01-10T22:55:57.436Z,0.70
2023-01-10T22:58:31.548Z,0.50
2023-01-10T23:01:06.620Z,0.50
2023-01-10T23:03:41.943Z,0.70
2023-01-10T23:06:17.262Z,0.60
2023-01-10T23:08:51.785Z,0.60
2023-01-10T23:11:25.446Z,0.80
2023-01-10T23:13:58.979Z,0.60
2023-01-10T23:16:33.115Z,0.60
2023-01-10T23:19:07.999Z,0.50
2023-01-10T23:21:41.320Z,0.67
2023-01-10T23:24:17.071Z,0.60
2023-01-10T23:26:51.567Z,0.60
2023-01-10T23:29:25.607Z,0.63
2023-01-10T23:31:59.276Z,0.50
2023-01-10T23:34:34.234Z,0.43
2023-01-10T23:37:07.859Z,0.50
2023-01-10T23:39:41.509Z,0.50
2023-01-10T23:42:15.806Z,0.60
2023-01-10T23:44:49.393Z,0.60
2023-01-10T23:47:22.974Z,0.57
2023-01-10T23:49:58.195Z,0.50
2023-01-10T23:52:31.971Z,0.60
2023-01-10T23:55:07.851Z,0.63
2023-01-10T23:57:41.247Z,0.57
